Portada
METAR-TAF:

METAR-TAF

Aeropuertos :

Christchurch, Nueva Zelanda

Aeropuerto Internacional de Christchurch

latitud: 43-29S, longitud: 172-33E, altitud: 38 m

Observación

El informe se hizo hace 36 minutos, a las 01:30 UTC
Viento 8 kt del este-noreste, variando entre noreste y este-sureste
Temperatura 15°C
Humedad 51%
Presión 1019 hPa
Visibilidad 10 km o más

METAR: NZCH 230130Z AUTO 07008KT 040V120 9999 NCD 15/05 Q1019 NOSIG

Hora: 14:06 (02:06 UTC)

Pronóstico

El informe se hizo hace 2 horas y 38 minutos, a las 23:28 UTC
Pronóstico válido del 23 a las 00 UTC al 24 a las 00 UTC
Viento 10 kt del noreste
Visibilidad 10 km o más
sin nubes por debajo de 1500 m y sin presencia de cumulonimbus.
Evolucionando progresivamente
del 23 a las 12 UTC al 23 a las 14 UTC
Viento 5 kt del oeste-noroeste
Probabilidad 30%
del 23 a las 15 UTC al 23 a las 20 UTC
Visibilidad: 2000 m
neblina

TAF: NZCH 222328Z 2300/2400 05010KT CAVOK BECMG 2312/2314 29005KT PROB30 2315/2320 2000 BR

Observaciones y pronósticos meteorológicos de más de 4000 aeropuertos (mensajes METAR y TAF).

Los puntos amarillos y rojos representan las estaciones disponibles.

Ponga el ratón en el punto deseado para ver el nombre de la estación.

Haga clic para ver las observaciones y los pronósticos meteorológicos.

Para cambiar el mapa : haga clic en los botones verdes con una cruz de color negro para hacer un zoom, en el botón verde con un guión para alejar o en las flechas verdes para mapas adyacentes.


METAR-TAF: